createdAt,value
2023-05-04T04:02:49.800Z,6.20
2023-05-04T04:05:18.073Z,6.20
2023-05-04T04:07:46.267Z,6.30
2023-05-04T04:10:14.453Z,6.30
2023-05-04T04:12:53.119Z,6.40
2023-05-04T04:15:21.675Z,6.50
2023-05-04T04:17:51.313Z,6.50
2023-05-04T04:20:19.876Z,6.60
2023-05-04T04:22:48.094Z,6.70
2023-05-04T04:25:16.364Z,6.80
2023-05-04T04:27:44.706Z,6.80
2023-05-04T04:30:14.410Z,6.90
2023-05-04T04:32:42.816Z,7.00
2023-05-04T04:35:12.599Z,7.10
2023-05-04T04:37:40.881Z,7.30
2023-05-04T04:40:11.121Z,7.40
2023-05-04T04:42:39.404Z,7.50
2023-05-04T04:45:09.358Z,7.60
2023-05-04T04:47:37.644Z,7.70
2023-05-04T04:50:07.667Z,7.80
2023-05-04T04:52:38.084Z,7.90
2023-05-04T04:55:08.657Z,8.00
2023-05-04T04:57:36.929Z,8.20
2023-05-04T05:00:11.081Z,8.30
2023-05-04T05:02:39.355Z,8.40
2023-05-04T05:05:08.636Z,8.50
2023-05-04T05:07:38.485Z,8.60
2023-05-04T05:10:08.734Z,8.80
2023-05-04T05:12:37.061Z,8.90
2023-05-04T05:15:06.284Z,9.00
2023-05-04T05:17:35.614Z,9.20
2023-05-04T05:20:05.273Z,9.40
2023-05-04T05:22:34.102Z,9.50
2023-05-04T05:25:04.378Z,9.60
2023-05-04T05:27:33.680Z,9.70
2023-05-04T05:30:03.092Z,9.90
2023-05-04T05:32:31.593Z,10.00
2023-05-04T05:34:59.851Z,10.10
2023-05-04T05:37:28.677Z,10.20
2023-05-04T05:39:56.983Z,10.30
2023-05-04T05:42:26.733Z,10.40
2023-05-04T05:44:55.193Z,10.60
2023-05-04T05:47:23.500Z,10.70
2023-05-04T05:49:51.658Z,10.80
2023-05-04T05:52:19.883Z,10.90
2023-05-04T05:54:48.097Z,11.00
2023-05-04T05:57:17.117Z,11.10
2023-05-04T05:59:47.370Z,11.20
2023-05-04T06:02:15.735Z,11.30
2023-05-04T06:04:44.936Z,11.40
2023-05-04T06:07:13.967Z,11.50
2023-05-04T06:09:42.335Z,11.60
2023-05-04T06:12:13.416Z,11.70
2023-05-04T06:14:41.868Z,11.80
2023-05-04T06:17:11.636Z,11.90
2023-05-04T06:19:39.945Z,12.00
2023-05-04T06:22:08.245Z,12.10
2023-05-04T06:24:36.584Z,12.20
2023-05-04T06:27:05.013Z,12.20
2023-05-04T06:29:34.048Z,12.40
2023-05-04T06:32:02.617Z,12.50
2023-05-04T06:34:32.237Z,12.60
2023-05-04T06:37:00.593Z,12.70
2023-05-04T06:39:28.847Z,12.80
2023-05-04T06:41:57.104Z,13.00
2023-05-04T06:44:25.494Z,13.10
2023-05-04T06:46:54.169Z,13.10
2023-05-04T06:49:22.340Z,13.20
2023-05-04T06:51:51.917Z,13.30
2023-05-04T06:54:20.194Z,13.40
2023-05-04T06:56:48.392Z,13.50
2023-05-04T06:59:16.900Z,13.50
2023-05-04T07:01:45.792Z,13.70
2023-05-04T07:04:16.310Z,13.80
2023-05-04T07:06:44.721Z,13.90
2023-05-04T07:09:14.355Z,14.00
2023-05-04T07:11:42.518Z,14.20
2023-05-04T07:14:11.225Z,14.30
2023-05-04T07:16:39.562Z,14.40
2023-05-04T07:19:08.306Z,14.40
2023-05-04T07:21:36.548Z,14.50
2023-05-04T07:24:06.942Z,14.50
2023-05-04T07:26:36.563Z,14.70
2023-05-04T07:29:04.776Z,14.80
2023-05-04T07:31:34.258Z,14.90
2023-05-04T07:34:02.480Z,15.00
2023-05-04T07:36:30.692Z,15.10
2023-05-04T07:38:59.216Z,15.20
2023-05-04T07:41:27.447Z,15.30
2023-05-04T07:43:57.036Z,15.40
2023-05-04T07:46:26.245Z,15.50
2023-05-04T07:48:54.482Z,15.60
2023-05-04T07:51:22.749Z,15.70
2023-05-04T07:53:50.921Z,15.80
2023-05-04T07:56:19.115Z,15.90
2023-05-04T07:58:47.548Z,16.00
2023-05-04T08:01:17.517Z,16.00
2023-05-04T08:03:45.988Z,16.10
2023-05-04T08:06:14.281Z,16.10
2023-05-04T08:08:44.706Z,16.20
2023-05-04T08:11:20.629Z,16.20
2023-05-04T08:13:51.193Z,16.30
2023-05-04T08:16:20.693Z,16.50
2023-05-04T08:18:49.015Z,16.70
2023-05-04T08:21:17.464Z,16.90
2023-05-04T08:23:45.707Z,17.00
2023-05-04T08:26:13.951Z,17.10
2023-05-04T08:28:42.715Z,17.30
2023-05-04T08:31:11.099Z,17.40
2023-05-04T08:33:40.752Z,17.50
2023-05-04T08:36:10.156Z,17.40
2023-05-04T08:38:38.417Z,17.10
2023-05-04T08:41:07.237Z,17.20
2023-05-04T08:43:37.113Z,17.20
2023-05-04T08:46:07.033Z,17.20
2023-05-04T08:48:35.501Z,17.30
2023-05-04T08:51:08.285Z,17.40
2023-05-04T08:53:41.102Z,17.50
2023-05-04T08:56:13.275Z,17.60
2023-05-04T08:58:49.869Z,17.50
2023-05-04T09:01:19.624Z,17.60
2023-05-04T09:03:49.965Z,17.60
2023-05-04T09:06:20.219Z,17.60
2023-05-04T09:08:48.480Z,17.60
2023-05-04T09:11:16.696Z,17.70
2023-05-04T09:13:45.315Z,17.60
2023-05-04T09:16:14.955Z,17.50
2023-05-04T09:18:45.592Z,17.40
2023-05-04T09:21:14.303Z,17.60
2023-05-04T09:23:51.621Z,17.70
2023-05-04T09:26:29.760Z,18.00
2023-05-04T09:28:58.641Z,18.30
2023-05-04T09:31:27.354Z,18.70
2023-05-04T09:33:55.529Z,18.90
2023-05-04T09:36:25.115Z,19.00
2023-05-04T09:38:55.326Z,19.10
2023-05-04T09:41:34.042Z,19.20
2023-05-04T09:44:03.393Z,19.10
2023-05-04T09:46:32.384Z,19.10
2023-05-04T09:49:00.580Z,19.00
2023-05-04T09:51:29.664Z,19.10
2023-05-04T09:54:03.755Z,19.20
2023-05-04T09:56:48.071Z,19.20
2023-05-04T09:59:20.396Z,19.30
2023-05-04T10:01:49.714Z,19.40
2023-05-04T10:04:18.034Z,19.60
2023-05-04T10:06:46.985Z,19.80
2023-05-04T10:09:17.426Z,20.30
2023-05-04T10:11:46.290Z,20.70
2023-05-04T10:14:14.863Z,21.10
2023-05-04T10:16:56.355Z,21.50
2023-05-04T10:19:51.814Z,21.80
2023-05-04T10:22:37.486Z,22.50
2023-05-04T10:25:36.048Z,22.80
2023-05-04T10:28:20.145Z,23.10
2023-05-04T10:30:48.513Z,23.10
2023-05-04T10:33:16.789Z,23.40
2023-05-04T10:35:55.041Z,23.60
2023-05-04T10:38:34.081Z,23.80
2023-05-04T10:41:15.390Z,24.20
2023-05-04T10:43:48.563Z,24.50
2023-05-04T10:46:21.237Z,24.70
2023-05-04T10:48:49.954Z,24.60
2023-05-04T10:51:24.328Z,24.70
2023-05-04T10:53:54.154Z,25.00
2023-05-04T10:56:25.515Z,25.50
2023-05-04T10:58:54.213Z,25.90
2023-05-04T11:01:23.270Z,26.20
2023-05-04T11:03:53.779Z,26.30
2023-05-04T11:06:26.311Z,26.60
2023-05-04T11:09:06.414Z,26.70
2023-05-04T11:11:39.939Z,26.90
2023-05-04T11:14:08.412Z,26.90
2023-05-04T11:16:36.700Z,27.00
2023-05-04T11:19:12.566Z,27.10
2023-05-04T11:21:42.181Z,27.10
2023-05-04T11:24:10.754Z,27.00
2023-05-04T11:26:49.446Z,27.40
2023-05-04T11:29:17.734Z,27.90
2023-05-04T11:31:55.725Z,28.40
2023-05-04T11:34:24.145Z,28.70
2023-05-04T11:36:54.515Z,29.20
2023-05-04T11:39:22.778Z,29.40
2023-05-04T11:41:52.456Z,29.20
2023-05-04T11:44:21.380Z,29.50
2023-05-04T11:46:51.698Z,29.50
2023-05-04T11:49:20.652Z,29.80
2023-05-04T11:51:48.873Z,30.20
2023-05-04T11:54:24.464Z,30.90
2023-05-04T11:56:54.495Z,31.20
2023-05-04T11:59:22.718Z,31.60
2023-05-04T12:01:51.095Z,31.40
2023-05-04T12:04:19.372Z,31.20
2023-05-04T12:06:47.657Z,31.70
2023-05-04T12:09:16.736Z,31.70
2023-05-04T12:11:57.025Z,31.50
2023-05-04T12:14:28.497Z,31.50
2023-05-04T12:16:57.884Z,31.70
2023-05-04T12:19:26.333Z,31.70
2023-05-04T12:21:58.429Z,31.90
2023-05-04T12:24:29.026Z,32.20
2023-05-04T12:26:58.600Z,32.00
2023-05-04T12:29:26.812Z,32.20
2023-05-04T12:31:55.086Z,32.60
2023-05-04T12:34:23.509Z,33.10
2023-05-04T12:36:52.578Z,33.50
2023-05-04T12:39:21.069Z,33.30
2023-05-04T12:41:49.296Z,33.30
2023-05-04T12:44:18.945Z,33.20
2023-05-04T12:46:47.287Z,33.60
2023-05-04T12:49:15.924Z,33.90
2023-05-04T12:51:44.530Z,33.70
2023-05-04T12:54:12.788Z,34.20
2023-05-04T12:56:41.355Z,34.70
2023-05-04T12:59:09.547Z,34.50
2023-05-04T13:01:40.658Z,34.10
2023-05-04T13:04:09.360Z,33.90
2023-05-04T13:06:37.618Z,34.00
2023-05-04T13:09:06.403Z,33.70
2023-05-04T13:11:34.678Z,33.50
2023-05-04T13:14:03.563Z,33.90
2023-05-04T13:16:31.891Z,35.30
2023-05-04T13:19:02.075Z,36.70
2023-05-04T13:21:30.486Z,38.00
2023-05-04T13:23:59.241Z,38.70
2023-05-04T13:26:27.610Z,38.40
2023-05-04T13:28:55.987Z,37.20
2023-05-04T13:31:24.284Z,37.10
2023-05-04T13:33:52.460Z,36.90
2023-05-04T13:36:22.059Z,37.20
2023-05-04T13:38:50.326Z,37.40
2023-05-04T13:41:18.650Z,37.00
2023-05-04T13:43:46.895Z,37.00
2023-05-04T13:46:15.175Z,37.40
2023-05-04T13:48:43.404Z,37.80
2023-05-04T13:51:11.642Z,38.30
2023-05-04T13:53:41.217Z,38.90
2023-05-04T13:56:09.507Z,40.00
2023-05-04T13:58:37.765Z,40.60
2023-05-04T14:01:06.503Z,40.60
2023-05-04T14:03:34.713Z,40.80
2023-05-04T14:06:03.577Z,41.10
2023-05-04T14:08:31.789Z,41.60
2023-05-04T14:11:01.340Z,41.40
2023-05-04T14:13:29.651Z,40.80
2023-05-04T14:15:58.329Z,40.80
2023-05-04T14:18:27.860Z,41.30
2023-05-04T14:20:56.150Z,42.10
2023-05-04T14:23:24.472Z,42.80
2023-05-04T14:25:53.202Z,43.30
2023-05-04T14:28:23.733Z,43.60
2023-05-04T14:30:52.047Z,43.20
2023-05-04T14:33:21.418Z,43.20
2023-05-04T14:35:49.681Z,43.00
2023-05-04T14:38:17.941Z,43.10
2023-05-04T14:40:48.388Z,42.70
2023-05-04T14:43:17.706Z,42.50
2023-05-04T14:45:47.701Z,42.70
2023-05-04T14:48:17.332Z,43.60
2023-05-04T14:50:45.625Z,44.50
2023-05-04T14:53:13.857Z,44.00
2023-05-04T14:55:42.509Z,44.10
2023-05-04T14:58:10.757Z,43.70
2023-05-04T15:00:39.699Z,43.70
2023-05-04T15:03:09.877Z,42.20
2023-05-04T15:05:38.354Z,41.70
2023-05-04T15:08:06.957Z,41.70
2023-05-04T15:10:35.208Z,42.20
2023-05-04T15:13:03.968Z,42.20
2023-05-04T15:15:32.194Z,41.90
2023-05-04T15:18:00.476Z,42.60
2023-05-04T15:20:30.415Z,42.50
2023-05-04T15:22:59.965Z,41.50
2023-05-04T15:25:28.517Z,41.30
2023-05-04T15:27:56.726Z,41.20
2023-05-04T15:30:24.968Z,40.90
2023-05-04T15:32:53.248Z,40.80
2023-05-04T15:35:21.653Z,40.80
2023-05-04T15:37:51.505Z,41.00
2023-05-04T15:40:19.733Z,41.50
2023-05-04T15:42:47.964Z,41.50
2023-05-04T15:45:16.586Z,40.70
2023-05-04T15:47:45.179Z,39.80
2023-05-04T15:50:13.822Z,38.50
2023-05-04T15:52:42.098Z,37.50
2023-05-04T15:55:24.822Z,36.90
2023-05-04T15:57:54.755Z,35.70
2023-05-04T16:00:23.885Z,34.70
2023-05-04T16:02:52.240Z,34.00
2023-05-04T16:05:21.308Z,33.50
2023-05-04T16:07:52.264Z,33.60
2023-05-04T16:10:22.188Z,33.80
2023-05-04T16:12:50.475Z,33.70
2023-05-04T16:15:19.065Z,33.80
2023-05-04T16:17:47.297Z,34.00
2023-05-04T16:20:15.573Z,34.00
2023-05-04T16:22:43.878Z,34.40
2023-05-04T16:25:12.181Z,34.30
2023-05-04T16:27:41.989Z,34.30
2023-05-04T16:30:11.499Z,34.40
2023-05-04T16:32:39.897Z,34.50
2023-05-04T16:35:10.665Z,34.40
2023-05-04T16:37:39.512Z,34.00
2023-05-04T16:40:14.069Z,33.60
2023-05-04T16:42:44.161Z,33.00
2023-05-04T16:45:14.577Z,32.50
2023-05-04T16:47:43.766Z,31.90
2023-05-04T16:50:14.204Z,31.20
2023-05-04T16:52:42.832Z,30.40
2023-05-04T16:55:12.366Z,29.80
2023-05-04T16:57:40.936Z,29.20
2023-05-04T17:00:13.305Z,28.60
2023-05-04T17:02:41.773Z,28.10
2023-05-04T17:05:11.239Z,27.70
2023-05-04T17:07:40.351Z,27.20
2023-05-04T17:10:10.902Z,26.60
2023-05-04T17:12:39.272Z,26.10
2023-05-04T17:15:10.628Z,25.60
2023-05-04T17:17:38.975Z,25.20
2023-05-04T17:20:14.899Z,24.90
2023-05-04T17:22:43.952Z,24.50
2023-05-04T17:25:13.023Z,24.20
2023-05-04T17:27:42.365Z,24.00
2023-05-04T17:30:13.936Z,23.80
2023-05-04T17:32:42.279Z,23.70
2023-05-04T17:35:21.163Z,23.50
2023-05-04T17:37:57.599Z,23.20
2023-05-04T17:40:26.989Z,22.90
2023-05-04T17:42:55.555Z,22.60
2023-05-04T17:45:25.531Z,22.30
2023-05-04T17:47:53.969Z,22.00
2023-05-04T17:50:22.520Z,21.70
2023-05-04T17:52:55.152Z,21.50
2023-05-04T17:55:24.803Z,21.20
2023-05-04T17:57:54.583Z,21.00
2023-05-04T18:00:26.005Z,20.80
2023-05-04T18:02:54.632Z,20.60
2023-05-04T18:05:26.311Z,20.30
2023-05-04T18:07:55.098Z,20.20
2023-05-04T18:10:23.382Z,20.00
2023-05-04T18:12:51.608Z,19.80
2023-05-04T18:15:20.029Z,19.60
2023-05-04T18:17:50.873Z,19.50
2023-05-04T18:20:19.707Z,19.30
2023-05-04T18:22:48.207Z,19.20
2023-05-04T18:25:16.634Z,19.10
2023-05-04T18:27:44.974Z,18.90
2023-05-04T18:30:13.511Z,18.80
2023-05-04T18:32:41.739Z,18.80
2023-05-04T18:35:11.674Z,18.60
2023-05-04T18:37:39.990Z,18.50
2023-05-04T18:40:10.256Z,18.50
2023-05-04T18:42:38.643Z,18.30
2023-05-04T18:45:10.256Z,18.20
2023-05-04T18:47:38.557Z,18.10
2023-05-04T18:50:08.773Z,18.00
2023-05-04T18:52:38.574Z,18.00
2023-05-04T18:55:07.958Z,17.90
2023-05-04T18:57:36.958Z,17.80
2023-05-04T19:00:06.991Z,17.70
2023-05-04T19:02:35.634Z,17.60
2023-05-04T19:05:04.048Z,17.50
2023-05-04T19:07:32.220Z,17.40
2023-05-04T19:10:02.098Z,17.30
2023-05-04T19:12:30.714Z,17.30
2023-05-04T19:14:59.197Z,17.30
2023-05-04T19:17:28.012Z,17.20
2023-05-04T19:19:57.028Z,17.20
2023-05-04T19:22:25.863Z,17.10
2023-05-04T19:24:55.452Z,17.10
2023-05-04T19:27:25.066Z,17.10
2023-05-04T19:29:53.247Z,17.00
2023-05-04T19:32:24.763Z,17.00
2023-05-04T19:34:53.613Z,17.00
2023-05-04T19:37:22.171Z,16.90
2023-05-04T19:39:50.620Z,16.90
2023-05-04T19:42:18.822Z,16.80
2023-05-04T19:44:48.366Z,16.80
2023-05-04T19:47:17.005Z,16.80
2023-05-04T19:49:48.382Z,16.70
2023-05-04T19:52:17.209Z,16.60
2023-05-04T19:54:48.217Z,16.60
2023-05-04T19:57:16.470Z,16.60
2023-05-04T19:59:46.814Z,16.50
2023-05-04T20:02:16.959Z,16.50
2023-05-04T20:04:45.213Z,16.50
2023-05-04T20:07:13.519Z,16.40
2023-05-04T20:09:41.848Z,16.40
2023-05-04T20:12:10.790Z,16.30
2023-05-04T20:14:40.450Z,16.30
2023-05-04T20:17:09.050Z,16.20
2023-05-04T20:19:40.548Z,16.20
2023-05-04T20:22:08.776Z,16.10
2023-05-04T20:24:37.068Z,16.10
2023-05-04T20:27:05.422Z,16.00
2023-05-04T20:29:33.722Z,16.00
2023-05-04T20:32:02.922Z,15.90
2023-05-04T20:34:31.722Z,15.90
2023-05-04T20:37:01.326Z,15.80
2023-05-04T20:39:29.509Z,15.70
2023-05-04T20:41:58.062Z,15.60
2023-05-04T20:44:26.300Z,15.60
2023-05-04T20:46:54.527Z,15.50
2023-05-04T20:49:22.781Z,15.40
2023-05-04T20:51:50.949Z,15.30
2023-05-04T20:54:20.532Z,15.20
2023-05-04T20:56:48.796Z,15.10
2023-05-04T20:59:17.086Z,15.00
